Ardsley, PA

1:03 PM EDT on July 04, 2015 (GMT -0400)
Keswick Village | | Change Station
CLOSE
Current Station
Personal Weather Station
Location: Glenside, PA
Elevation: 256 ft
Nearby Weather Stations

Elev 256 ft 40.10 °N, 75.15 °W | Updated 14 seconds ago

Rain
Rain
70.0 °F
Feels Like 70.0 °F
N
0.0
Wind Variable Wind from South
Gusts 0.0 mph

Today
High -- | Low -- °F
--% Chance of Precip.
Yesterday
High -- | Low -- °F
Precip. -- in
5:36 AM 8:33 PM
Waning Gibbous, 91% visible
Pressure 29.95 in
Visibility 10.0 miles
Clouds Scattered Clouds 900 ft
Scattered Clouds 2000 ft
Scattered Clouds 2600 ft
Dew Point 67 °F
Humidity 90%
Rainfall 0.04 in
Snow Depth Not available.
UV 2.0 out of 12
Pollen .50 out of 12
Air Quality Not available.
Flu Activity Not available.
METAR KLOM 041655Z AUTO 05004KT 10SM SCT009 SCT020 SCT026 20/17 A2995 RMK AO1 P0001

More Conditions Fewer Conditions

Pressure 29.95 in
Visibility 10.0 miles
Clouds Scattered Clouds 900 ft
Scattered Clouds 2000 ft
Scattered Clouds 2600 ft
Dew Point 67 °F
Humidity 90%
Rainfall 0.04 in
Snow Depth Not available.
UV 2.0 out of 12
Pollen .50 out of 12
Air Quality Not available.
Flu Activity Not available.
METAR KLOM 041655Z AUTO 05004KT 10SM SCT009 SCT020 SCT026 20/17 A2995 RMK AO1 P0001

More Conditions Fewer Conditions

Nowcast | as of 11:50 am EDT on July 4, 2015

Between now and 200 PM, rain showers will continue to affect much of the Interstate 95 corridor from northeastern Maryland and northern Delaware into southeastern Pennsylvania and southwestern and central New Jersey. Rainfall amounts of one or two tenths of an inch are possible.

×

10-Day Weather Forecast

×

Almanac

Astronomy

Jul. 04, 2015 Rise Set
Actual Time
Civil Twilight
Nautical Twilight
Astronomical Twilight
Moon
Length of Visible Light
Length of Day
Tomorrow will be .
, % of the Moon is Illuminated

Today's Extremes

State Highs State Lows

Community

WunderPhotos

Upload Photos

1,835,003 photos uploaded!

WunderBlogs® & News

Nearby

Air Quality

  Air Quality AQ Index Pollutant
Not available.

Snow Depth

Station Depth Elevation

Earthquake Activity

City Distance Mag. Time & Date
Minimum magnitude displayed is 2.5.

Coastal Water Temperatures

Place Temperature

Stations

Nearby Weather Stations

Station Location Temp. Windchill Dew Point Humidity Wind Precip. Elev Updated Type